Wednesday, February 20, 2019, 2:37 PM EST
Back to Local

KAQW, N Adams Harriman-and-west

Location: North Adams, MA, United States Lat: 42.7
Local Time: 2:37 PM EST (19:37 GMT) Lon: -73.167
Time Zone: US/Eastern Elev: 652 ft

Show me the last for .
Show Coded

Time T Td Feel RH Dir Speed Gust Alt SLP Vis Weather Sky Remarks
2019-02-20 13:52 26 10 22 50 110° 3 - 30.43 30.47 10 BKN110 None
2019-02-20 12:52 24 12 - 59 - Calm - 30.45 30.49 10 FEW120 6-hr Min Temp (1pm): 6.1°F
6-hr Max Temp (1pm): 24.1°F
2019-02-20 11:52 22 11 16 62 100° 5 - 30.48 30.52 10 CLR None
2019-02-20 10:52 19 10 14 67 100° 3 - 30.53 30.57 10 CLR None
2019-02-20 09:52 15 10 - 79 - Calm - 30.54 30.58 10 CLR None
2019-02-20 08:52 12 9 - 87 - Calm - 30.55 30.60 10 CLR None
2019-02-20 07:52 9 7 - 91 - Calm - 30.57 30.61 10 CLR None
2019-02-20 06:52 6 5 - 95 - Calm - 30.56 30.60 10 CLR 6-hr Min Temp (7am): 5.0°F
6-hr Max Temp (7am): 12.9°F
2019-02-20 05:52 7 4 0 86 90° 3 - 30.57 30.61 10 CLR None
2019-02-20 04:52 6 4 - 90 - Calm - 30.56 30.60 10 CLR None
2019-02-20 03:52 8 6 - 91 - Calm - 30.54 30.58 10 CLR None
2019-02-20 02:52 8 6 1 91 270° 3 - 30.55 30.59 10 CLR None
2019-02-20 01:52 9 5 2 83 250° 3 - 30.56 30.60 10 CLR None
2019-02-20 00:52 11 5 1 76 290° 6 - 30.55 30.59 10 CLR 6-hr Min Temp (1am): 10.0°F
6-hr Max Temp (1am): 18.0°F
2019-02-19 23:52 11 4 -1 72 250° 8 - 30.55 30.59 10 CLR 24-hr Min Temp (12am): 3.9°F
24-hr Max Temp (12am): 24.1°F
2019-02-19 22:52 14 5 8 66 300° 3 - 30.56 30.60 10 CLR None
2019-02-19 21:52 17 6 6 61 280° 9 - 30.56 30.60 10 CLR None
2019-02-19 20:52 17 6 4 61 270° 12 - 30.56 30.61 10 CLR None
2019-02-19 19:52 17 5 3 58 260° 14 - 30.55 30.59 10 CLR None
2019-02-19 18:52 18 4 5 53 270° 12 - 30.55 30.59 10 CLR 6-hr Precip Total (7pm): 0.00"
6-hr Min Temp (7pm): 18.0°F
6-hr Max Temp (7pm): 24.1°F
2019-02-19 17:52 19 3 7 48 280° 10 - 30.52 30.56 10 CLR None
2019-02-19 16:52 21 4 10 46 280° 10 - 30.49 30.54 10 CLR None
2019-02-19 15:52 23 4 8 43 280° 14 20 30.49 30.53 10 CLR 6-hr Precip Total (4pm): 0.00"
2019-02-19 14:52 23 4 11 43 270° 14 - 30.50 30.54 10 CLR None

Support USWX by starting your Amazon purchase here.